sensor_id;sensor_type;location;lat;lon;timestamp;P1;durP1;ratioP1;P2;durP2;ratioP2
29002;SDS011;16102;57.138;-2.118;2023-04-15T00:01:05;12.10;;;3.45;;
29002;SDS011;16102;57.138;-2.118;2023-04-15T00:03:33;9.98;;;3.35;;
29002;SDS011;16102;57.138;-2.118;2023-04-15T00:06:01;10.23;;;3.78;;
29002;SDS011;16102;57.138;-2.118;2023-04-15T00:08:29;10.82;;;3.72;;
29002;SDS011;16102;57.138;-2.118;2023-04-15T00:10:56;9.80;;;3.22;;
29002;SDS011;16102;57.138;-2.118;2023-04-15T00:13:28;20.35;;;5.25;;
29002;SDS011;16102;57.138;-2.118;2023-04-15T00:15:58;11.00;;;4.18;;
29002;SDS011;16102;57.138;-2.118;2023-04-15T00:18:25;17.67;;;5.50;;
29002;SDS011;16102;57.138;-2.118;2023-04-15T00:20:52;15.73;;;4.72;;
29002;SDS011;16102;57.138;-2.118;2023-04-15T00:23:19;11.23;;;3.17;;
29002;SDS011;16102;57.138;-2.118;2023-04-15T00:25:46;3.97;;;1.88;;
29002;SDS011;16102;57.138;-2.118;2023-04-15T00:28:13;5.10;;;2.47;;
29002;SDS011;16102;57.138;-2.118;2023-04-15T00:30:40;3.85;;;2.05;;
29002;SDS011;16102;57.138;-2.118;2023-04-15T00:33:07;6.18;;;1.80;;
29002;SDS011;16102;57.138;-2.118;2023-04-15T00:35:35;6.03;;;3.15;;
29002;SDS011;16102;57.138;-2.118;2023-04-15T00:38:03;4.93;;;2.28;;
29002;SDS011;16102;57.138;-2.118;2023-04-15T00:40:31;3.38;;;2.08;;
29002;SDS011;16102;57.138;-2.118;2023-04-15T00:42:58;7.03;;;2.45;;
29002;SDS011;16102;57.138;-2.118;2023-04-15T00:45:25;11.75;;;3.30;;
29002;SDS011;16102;57.138;-2.118;2023-04-15T00:47:55;9.48;;;2.50;;
29002;SDS011;16102;57.138;-2.118;2023-04-15T00:50:22;5.70;;;2.83;;
29002;SDS011;16102;57.138;-2.118;2023-04-15T00:52:49;7.32;;;2.78;;
29002;SDS011;16102;57.138;-2.118;2023-04-15T00:55:17;4.15;;;1.73;;
29002;SDS011;16102;57.138;-2.118;2023-04-15T00:57:44;3.50;;;2.15;;
29002;SDS011;16102;57.138;-2.118;2023-04-15T01:00:11;4.53;;;2.42;;
29002;SDS011;16102;57.138;-2.118;2023-04-15T01:02:39;5.35;;;2.80;;
29002;SDS011;16102;57.138;-2.118;2023-04-15T01:05:06;2.72;;;1.50;;
29002;SDS011;16102;57.138;-2.118;2023-04-15T01:07:33;10.73;;;3.83;;
29002;SDS011;16102;57.138;-2.118;2023-04-15T01:10:02;3.70;;;1.90;;
29002;SDS011;16102;57.138;-2.118;2023-04-15T01:12:30;5.10;;;2.72;;
29002;SDS011;16102;57.138;-2.118;2023-04-15T01:14:58;4.05;;;2.30;;
29002;SDS011;16102;57.138;-2.118;2023-04-15T01:17:25;4.30;;;2.22;;
29002;SDS011;16102;57.138;-2.118;2023-04-15T01:19:54;4.55;;;2.15;;
29002;SDS011;16102;57.138;-2.118;2023-04-15T01:22:23;4.07;;;1.98;;
29002;SDS011;16102;57.138;-2.118;2023-04-15T01:25:08;17.63;;;4.72;;
29002;SDS011;16102;57.138;-2.118;2023-04-15T01:27:38;6.15;;;3.28;;
29002;SDS011;16102;57.138;-2.118;2023-04-15T01:30:10;4.97;;;1.77;;
29002;SDS011;16102;57.138;-2.118;2023-04-15T01:32:37;5.07;;;2.40;;
29002;SDS011;16102;57.138;-2.118;2023-04-15T01:35:04;3.70;;;2.25;;
29002;SDS011;16102;57.138;-2.118;2023-04-15T01:37:32;3.17;;;1.58;;
29002;SDS011;16102;57.138;-2.118;2023-04-15T01:39:59;5.82;;;1.95;;
29002;SDS011;16102;57.138;-2.118;2023-04-15T01:42:27;7.22;;;3.72;;
29002;SDS011;16102;57.138;-2.118;2023-04-15T01:44:54;8.02;;;2.10;;
29002;SDS011;16102;57.138;-2.118;2023-04-15T01:47:21;13.70;;;4.43;;
29002;SDS011;16102;57.138;-2.118;2023-04-15T01:49:49;4.18;;;2.33;;
29002;SDS011;16102;57.138;-2.118;2023-04-15T01:52:16;14.18;;;4.45;;
29002;SDS011;16102;57.138;-2.118;2023-04-15T01:54:43;14.45;;;4.72;;
29002;SDS011;16102;57.138;-2.118;2023-04-15T01:57:11;7.50;;;3.20;;
29002;SDS011;16102;57.138;-2.118;2023-04-15T01:59:38;7.70;;;3.00;;
29002;SDS011;16102;57.138;-2.118;2023-04-15T02:02:05;7.93;;;2.92;;
29002;SDS011;16102;57.138;-2.118;2023-04-15T02:04:32;4.20;;;2.22;;
29002;SDS011;16102;57.138;-2.118;2023-04-15T02:06:59;8.65;;;2.53;;
29002;SDS011;16102;57.138;-2.118;2023-04-15T02:09:26;7.25;;;2.90;;
29002;SDS011;16102;57.138;-2.118;2023-04-15T02:11:53;9.98;;;3.47;;
29002;SDS011;16102;57.138;-2.118;2023-04-15T02:14:20;14.00;;;5.03;;
29002;SDS011;16102;57.138;-2.118;2023-04-15T02:16:47;6.28;;;2.45;;
29002;SDS011;16102;57.138;-2.118;2023-04-15T02:19:14;7.38;;;2.38;;
29002;SDS011;16102;57.138;-2.118;2023-04-15T02:21:41;2.20;;;1.50;;
29002;SDS011;16102;57.138;-2.118;2023-04-15T02:24:08;4.32;;;1.80;;
29002;SDS011;16102;57.138;-2.118;2023-04-15T02:26:37;8.45;;;3.28;;
29002;SDS011;16102;57.138;-2.118;2023-04-15T02:29:04;6.05;;;2.30;;
29002;SDS011;16102;57.138;-2.118;2023-04-15T02:31:31;8.00;;;2.40;;
29002;SDS011;16102;57.138;-2.118;2023-04-15T02:34:02;5.57;;;1.38;;
29002;SDS011;16102;57.138;-2.118;2023-04-15T02:36:30;8.93;;;1.95;;
29002;SDS011;16102;57.138;-2.118;2023-04-15T02:38:57;9.20;;;4.28;;
29002;SDS011;16102;57.138;-2.118;2023-04-15T02:41:24;5.95;;;2.55;;
29002;SDS011;16102;57.138;-2.118;2023-04-15T02:43:53;10.75;;;3.90;;
29002;SDS011;16102;57.138;-2.118;2023-04-15T02:46:20;9.52;;;3.00;;
29002;SDS011;16102;57.138;-2.118;2023-04-15T02:48:48;4.53;;;2.65;;
29002;SDS011;16102;57.138;-2.118;2023-04-15T02:51:19;3.85;;;2.08;;
29002;SDS011;16102;57.138;-2.118;2023-04-15T02:53:48;3.67;;;1.55;;
29002;SDS011;16102;57.138;-2.118;2023-04-15T02:56:15;18.48;;;3.15;;
29002;SDS011;16102;57.138;-2.118;2023-04-15T02:58:44;4.18;;;1.75;;
29002;SDS011;16102;57.138;-2.118;2023-04-15T03:01:11;2.30;;;1.55;;
29002;SDS011;16102;57.138;-2.118;2023-04-15T03:03:38;3.80;;;1.85;;
29002;SDS011;16102;57.138;-2.118;2023-04-15T03:06:06;4.07;;;1.40;;
29002;SDS011;16102;57.138;-2.118;2023-04-15T03:08:34;5.63;;;2.30;;
29002;SDS011;16102;57.138;-2.118;2023-04-15T03:11:01;3.30;;;1.92;;
29002;SDS011;16102;57.138;-2.118;2023-04-15T03:13:29;5.07;;;2.15;;
29002;SDS011;16102;57.138;-2.118;2023-04-15T03:15:56;3.85;;;2.10;;
29002;SDS011;16102;57.138;-2.118;2023-04-15T03:18:23;4.20;;;2.10;;
29002;SDS011;16102;57.138;-2.118;2023-04-15T03:20:50;6.22;;;2.90;;
29002;SDS011;16102;57.138;-2.118;2023-04-15T03:23:17;12.68;;;4.95;;
29002;SDS011;16102;57.138;-2.118;2023-04-15T03:25:44;6.00;;;2.50;;
29002;SDS011;16102;57.138;-2.118;2023-04-15T03:28:11;5.15;;;2.72;;
29002;SDS011;16102;57.138;-2.118;2023-04-15T03:30:38;9.90;;;3.42;;
29002;SDS011;16102;57.138;-2.118;2023-04-15T03:33:05;8.82;;;3.80;;
29002;SDS011;16102;57.138;-2.118;2023-04-15T03:35:32;7.95;;;2.58;;
29002;SDS011;16102;57.138;-2.118;2023-04-15T03:37:59;4.00;;;2.33;;
29002;SDS011;16102;57.138;-2.118;2023-04-15T03:40:26;4.82;;;1.70;;
29002;SDS011;16102;57.138;-2.118;2023-04-15T03:42:53;4.07;;;2.33;;
29002;SDS011;16102;57.138;-2.118;2023-04-15T03:45:20;5.70;;;2.10;;
29002;SDS011;16102;57.138;-2.118;2023-04-15T03:47:47;4.30;;;2.22;;
29002;SDS011;16102;57.138;-2.118;2023-04-15T03:50:15;4.55;;;2.20;;
29002;SDS011;16102;57.138;-2.118;2023-04-15T03:52:42;6.20;;;2.60;;
29002;SDS011;16102;57.138;-2.118;2023-04-15T03:55:10;9.13;;;2.45;;
29002;SDS011;16102;57.138;-2.118;2023-04-15T03:57:37;5.03;;;2.35;;
29002;SDS011;16102;57.138;-2.118;2023-04-15T04:00:05;5.90;;;2.40;;
29002;SDS011;16102;57.138;-2.118;2023-04-15T04:02:33;7.22;;;2.33;;
29002;SDS011;16102;57.138;-2.118;2023-04-15T04:05:00;10.93;;;4.15;;
29002;SDS011;16102;57.138;-2.118;2023-04-15T04:07:27;6.20;;;3.00;;
29002;SDS011;16102;57.138;-2.118;2023-04-15T04:09:55;10.13;;;3.58;;
29002;SDS011;16102;57.138;-2.118;2023-04-15T04:12:23;4.72;;;2.45;;
29002;SDS011;16102;57.138;-2.118;2023-04-15T04:14:49;6.75;;;3.15;;
29002;SDS011;16102;57.138;-2.118;2023-04-15T04:17:16;11.57;;;6.57;;
29002;SDS011;16102;57.138;-2.118;2023-04-15T04:19:44;24.33;;;11.13;;
29002;SDS011;16102;57.138;-2.118;2023-04-15T04:22:11;15.70;;;7.88;;
29002;SDS011;16102;57.138;-2.118;2023-04-15T04:24:38;17.50;;;8.80;;
29002;SDS011;16102;57.138;-2.118;2023-04-15T04:27:05;13.43;;;6.97;;
29002;SDS011;16102;57.138;-2.118;2023-04-15T04:29:32;18.23;;;8.95;;
29002;SDS011;16102;57.138;-2.118;2023-04-15T04:31:59;12.10;;;5.60;;
29002;SDS011;16102;57.138;-2.118;2023-04-15T04:34:26;9.70;;;4.72;;
29002;SDS011;16102;57.138;-2.118;2023-04-15T04:36:53;7.57;;;4.78;;
29002;SDS011;16102;57.138;-2.118;2023-04-15T04:39:20;16.42;;;6.55;;
29002;SDS011;16102;57.138;-2.118;2023-04-15T04:41:47;18.67;;;8.18;;
29002;SDS011;16102;57.138;-2.118;2023-04-15T04:44:15;27.52;;;13.45;;
29002;SDS011;16102;57.138;-2.118;2023-04-15T04:46:42;17.23;;;8.13;;
29002;SDS011;16102;57.138;-2.118;2023-04-15T04:49:09;19.65;;;8.65;;
29002;SDS011;16102;57.138;-2.118;2023-04-15T04:51:36;15.05;;;6.95;;
29002;SDS011;16102;57.138;-2.118;2023-04-15T04:54:03;32.47;;;11.75;;
29002;SDS011;16102;57.138;-2.118;2023-04-15T04:56:30;16.85;;;9.57;;
29002;SDS011;16102;57.138;-2.118;2023-04-15T04:58:57;16.92;;;9.18;;
29002;SDS011;16102;57.138;-2.118;2023-04-15T05:01:24;16.63;;;8.32;;
29002;SDS011;16102;57.138;-2.118;2023-04-15T05:03:52;11.57;;;6.55;;
29002;SDS011;16102;57.138;-2.118;2023-04-15T05:06:20;10.32;;;6.70;;
29002;SDS011;16102;57.138;-2.118;2023-04-15T05:08:47;15.35;;;8.32;;
29002;SDS011;16102;57.138;-2.118;2023-04-15T05:11:14;14.23;;;7.97;;
29002;SDS011;16102;57.138;-2.118;2023-04-15T05:13:42;26.23;;;10.15;;
29002;SDS011;16102;57.138;-2.118;2023-04-15T05:16:09;10.48;;;6.53;;
29002;SDS011;16102;57.138;-2.118;2023-04-15T05:18:36;13.55;;;7.10;;
29002;SDS011;16102;57.138;-2.118;2023-04-15T05:21:03;18.70;;;8.95;;
29002;SDS011;16102;57.138;-2.118;2023-04-15T05:23:30;19.58;;;10.00;;
29002;SDS011;16102;57.138;-2.118;2023-04-15T05:25:57;18.08;;;9.13;;
29002;SDS011;16102;57.138;-2.118;2023-04-15T05:28:24;40.47;;;15.82;;
29002;SDS011;16102;57.138;-2.118;2023-04-15T05:30:51;15.45;;;8.88;;
29002;SDS011;16102;57.138;-2.118;2023-04-15T05:33:18;13.95;;;8.27;;
29002;SDS011;16102;57.138;-2.118;2023-04-15T05:35:45;35.10;;;14.63;;
29002;SDS011;16102;57.138;-2.118;2023-04-15T05:38:12;24.55;;;11.82;;
29002;SDS011;16102;57.138;-2.118;2023-04-15T05:40:41;13.82;;;8.40;;
29002;SDS011;16102;57.138;-2.118;2023-04-15T05:43:08;20.10;;;10.15;;
29002;SDS011;16102;57.138;-2.118;2023-04-15T05:45:35;21.73;;;11.18;;
29002;SDS011;16102;57.138;-2.118;2023-04-15T05:48:02;28.38;;;13.30;;
29002;SDS011;16102;57.138;-2.118;2023-04-15T05:50:29;17.65;;;9.63;;
29002;SDS011;16102;57.138;-2.118;2023-04-15T05:52:56;14.13;;;8.20;;
29002;SDS011;16102;57.138;-2.118;2023-04-15T05:55:23;23.92;;;12.88;;
29002;SDS011;16102;57.138;-2.118;2023-04-15T05:57:51;23.25;;;11.35;;
29002;SDS011;16102;57.138;-2.118;2023-04-15T06:00:18;14.32;;;7.63;;
29002;SDS011;16102;57.138;-2.118;2023-04-15T06:02:45;27.25;;;13.75;;
29002;SDS011;16102;57.138;-2.118;2023-04-15T06:05:13;38.20;;;19.17;;
29002;SDS011;16102;57.138;-2.118;2023-04-15T06:07:40;42.15;;;19.73;;
29002;SDS011;16102;57.138;-2.118;2023-04-15T06:10:11;24.33;;;14.07;;
29002;SDS011;16102;57.138;-2.118;2023-04-15T06:12:38;56.25;;;27.02;;
29002;SDS011;16102;57.138;-2.118;2023-04-15T06:15:05;43.50;;;20.40;;
29002;SDS011;16102;57.138;-2.118;2023-04-15T06:17:35;28.13;;;16.75;;
29002;SDS011;16102;57.138;-2.118;2023-04-15T06:20:02;44.08;;;21.48;;
29002;SDS011;16102;57.138;-2.118;2023-04-15T06:22:30;31.38;;;15.32;;
29002;SDS011;16102;57.138;-2.118;2023-04-15T06:24:57;27.55;;;15.60;;
29002;SDS011;16102;57.138;-2.118;2023-04-15T06:27:24;39.58;;;20.02;;
29002;SDS011;16102;57.138;-2.118;2023-04-15T06:29:51;60.80;;;30.83;;
29002;SDS011;16102;57.138;-2.118;2023-04-15T06:32:18;56.70;;;27.15;;
29002;SDS011;16102;57.138;-2.118;2023-04-15T06:34:45;43.70;;;22.02;;
29002;SDS011;16102;57.138;-2.118;2023-04-15T06:37:12;41.80;;;19.55;;
29002;SDS011;16102;57.138;-2.118;2023-04-15T06:39:41;29.77;;;15.20;;
29002;SDS011;16102;57.138;-2.118;2023-04-15T06:42:10;23.80;;;12.45;;
29002;SDS011;16102;57.138;-2.118;2023-04-15T06:44:37;27.17;;;14.77;;
29002;SDS011;16102;57.138;-2.118;2023-04-15T06:47:04;25.23;;;12.80;;
29002;SDS011;16102;57.138;-2.118;2023-04-15T06:49:31;18.55;;;10.50;;
29002;SDS011;16102;57.138;-2.118;2023-04-15T06:51:59;21.80;;;12.15;;
29002;SDS011;16102;57.138;-2.118;2023-04-15T06:54:26;17.83;;;9.57;;
29002;SDS011;16102;57.138;-2.118;2023-04-15T06:56:53;17.95;;;8.80;;
29002;SDS011;16102;57.138;-2.118;2023-04-15T06:59:20;10.55;;;6.57;;
29002;SDS011;16102;57.138;-2.118;2023-04-15T07:01:47;9.50;;;5.78;;
29002;SDS011;16102;57.138;-2.118;2023-04-15T07:04:14;9.88;;;5.28;;
29002;SDS011;16102;57.138;-2.118;2023-04-15T07:06:41;5.95;;;4.30;;
29002;SDS011;16102;57.138;-2.118;2023-04-15T07:09:08;6.47;;;3.50;;
29002;SDS011;16102;57.138;-2.118;2023-04-15T07:11:35;7.55;;;3.53;;
29002;SDS011;16102;57.138;-2.118;2023-04-15T07:14:02;10.18;;;6.20;;
29002;SDS011;16102;57.138;-2.118;2023-04-15T07:16:30;5.43;;;3.72;;
29002;SDS011;16102;57.138;-2.118;2023-04-15T07:18:57;4.30;;;2.80;;
29002;SDS011;16102;57.138;-2.118;2023-04-15T07:21:24;5.15;;;3.15;;
29002;SDS011;16102;57.138;-2.118;2023-04-15T07:23:53;3.83;;;2.95;;
29002;SDS011;16102;57.138;-2.118;2023-04-15T07:26:20;3.15;;;1.65;;
29002;SDS011;16102;57.138;-2.118;2023-04-15T07:28:47;2.75;;;1.83;;
29002;SDS011;16102;57.138;-2.118;2023-04-15T07:31:14;3.53;;;2.05;;
29002;SDS011;16102;57.138;-2.118;2023-04-15T07:33:42;1.67;;;1.20;;
29002;SDS011;16102;57.138;-2.118;2023-04-15T07:36:12;1.58;;;1.30;;
29002;SDS011;16102;57.138;-2.118;2023-04-15T07:38:43;2.92;;;1.80;;
29002;SDS011;16102;57.138;-2.118;2023-04-15T07:41:10;3.33;;;1.88;;
29002;SDS011;16102;57.138;-2.118;2023-04-15T07:43:37;2.42;;;1.40;;
29002;SDS011;16102;57.138;-2.118;2023-04-15T07:46:04;1.27;;;1.05;;
29002;SDS011;16102;57.138;-2.118;2023-04-15T07:48:31;0.77;;;0.77;;
29002;SDS011;16102;57.138;-2.118;2023-04-15T07:50:59;9.55;;;4.97;;
29002;SDS011;16102;57.138;-2.118;2023-04-15T07:53:27;5.60;;;3.25;;
29002;SDS011;16102;57.138;-2.118;2023-04-15T07:55:54;2.58;;;2.10;;
29002;SDS011;16102;57.138;-2.118;2023-04-15T07:58:21;2.92;;;2.10;;
29002;SDS011;16102;57.138;-2.118;2023-04-15T08:00:48;9.13;;;3.22;;
29002;SDS011;16102;57.138;-2.118;2023-04-15T08:03:15;3.40;;;2.20;;
29002;SDS011;16102;57.138;-2.118;2023-04-15T08:05:42;6.38;;;4.05;;
29002;SDS011;16102;57.138;-2.118;2023-04-15T08:08:09;6.32;;;3.08;;
29002;SDS011;16102;57.138;-2.118;2023-04-15T08:10:36;4.68;;;2.60;;
29002;SDS011;16102;57.138;-2.118;2023-04-15T08:13:03;4.38;;;1.83;;
29002;SDS011;16102;57.138;-2.118;2023-04-15T08:15:31;2.90;;;1.45;;
29002;SDS011;16102;57.138;-2.118;2023-04-15T08:17:58;1.30;;;1.10;;
29002;SDS011;16102;57.138;-2.118;2023-04-15T08:20:28;3.25;;;1.67;;
29002;SDS011;16102;57.138;-2.118;2023-04-15T08:22:55;3.85;;;1.80;;
29002;SDS011;16102;57.138;-2.118;2023-04-15T08:25:22;6.40;;;2.17;;
29002;SDS011;16102;57.138;-2.118;2023-04-15T08:27:49;3.63;;;1.65;;
29002;SDS011;16102;57.138;-2.118;2023-04-15T08:30:16;4.38;;;1.70;;
29002;SDS011;16102;57.138;-2.118;2023-04-15T08:32:44;1.58;;;1.05;;
29002;SDS011;16102;57.138;-2.118;2023-04-15T08:35:14;2.97;;;1.25;;
29002;SDS011;16102;57.138;-2.118;2023-04-15T08:37:42;4.78;;;1.13;;
29002;SDS011;16102;57.138;-2.118;2023-04-15T08:40:09;2.78;;;1.25;;
29002;SDS011;16102;57.138;-2.118;2023-04-15T08:42:44;2.67;;;1.02;;
29002;SDS011;16102;57.138;-2.118;2023-04-15T08:45:14;2.55;;;0.82;;
29002;SDS011;16102;57.138;-2.118;2023-04-15T08:47:42;4.22;;;0.80;;
29002;SDS011;16102;57.138;-2.118;2023-04-15T08:50:12;2.80;;;1.73;;
29002;SDS011;16102;57.138;-2.118;2023-04-15T08:52:41;1.00;;;0.65;;
29002;SDS011;16102;57.138;-2.118;2023-04-15T08:55:09;2.05;;;1.00;;
29002;SDS011;16102;57.138;-2.118;2023-04-15T08:57:39;1.05;;;0.77;;
29002;SDS011;16102;57.138;-2.118;2023-04-15T09:00:06;1.95;;;1.17;;
29002;SDS011;16102;57.138;-2.118;2023-04-15T09:02:34;4.90;;;1.00;;
29002;SDS011;16102;57.138;-2.118;2023-04-15T09:05:02;3.28;;;1.45;;
29002;SDS011;16102;57.138;-2.118;2023-04-15T09:07:34;2.22;;;1.45;;
29002;SDS011;16102;57.138;-2.118;2023-04-15T09:10:02;1.35;;;1.00;;
29002;SDS011;16102;57.138;-2.118;2023-04-15T09:12:30;1.60;;;0.85;;
29002;SDS011;16102;57.138;-2.118;2023-04-15T09:14:59;1.27;;;0.88;;
29002;SDS011;16102;57.138;-2.118;2023-04-15T09:17:26;3.60;;;1.13;;
29002;SDS011;16102;57.138;-2.118;2023-04-15T09:20:09;5.00;;;0.88;;
29002;SDS011;16102;57.138;-2.118;2023-04-15T09:22:42;3.88;;;0.98;;
29002;SDS011;16102;57.138;-2.118;2023-04-15T09:27:50;4.75;;;0.95;;
29002;SDS011;16102;57.138;-2.118;2023-04-15T09:30:20;2.60;;;1.02;;
29002;SDS011;16102;57.138;-2.118;2023-04-15T09:35:23;2.05;;;0.90;;
29002;SDS011;16102;57.138;-2.118;2023-04-15T09:37:51;3.83;;;1.02;;
29002;SDS011;16102;57.138;-2.118;2023-04-15T09:40:35;2.90;;;1.10;;
29002;SDS011;16102;57.138;-2.118;2023-04-15T09:43:04;2.50;;;0.95;;
29002;SDS011;16102;57.138;-2.118;2023-04-15T09:45:33;2.30;;;1.23;;
29002;SDS011;16102;57.138;-2.118;2023-04-15T09:48:20;2.08;;;1.00;;
29002;SDS011;16102;57.138;-2.118;2023-04-15T09:50:48;3.83;;;1.30;;
29002;SDS011;16102;57.138;-2.118;2023-04-15T09:53:17;1.58;;;1.15;;
29002;SDS011;16102;57.138;-2.118;2023-04-15T09:55:53;3.28;;;1.25;;
29002;SDS011;16102;57.138;-2.118;2023-04-15T09:58:26;3.78;;;1.25;;
29002;SDS011;16102;57.138;-2.118;2023-04-15T10:00:56;4.65;;;1.70;;
29002;SDS011;16102;57.138;-2.118;2023-04-15T10:03:24;1.95;;;0.90;;
29002;SDS011;16102;57.138;-2.118;2023-04-15T10:05:54;4.82;;;1.02;;
29002;SDS011;16102;57.138;-2.118;2023-04-15T10:08:23;7.18;;;1.67;;
29002;SDS011;16102;57.138;-2.118;2023-04-15T10:10:53;2.28;;;1.13;;
29002;SDS011;16102;57.138;-2.118;2023-04-15T10:13:23;5.47;;;1.60;;
29002;SDS011;16102;57.138;-2.118;2023-04-15T10:18:27;3.10;;;1.30;;
29002;SDS011;16102;57.138;-2.118;2023-04-15T10:20:54;4.53;;;1.25;;
29002;SDS011;16102;57.138;-2.118;2023-04-15T10:23:22;4.03;;;1.52;;
29002;SDS011;16102;57.138;-2.118;2023-04-15T10:25:51;3.22;;;1.17;;
29002;SDS011;16102;57.138;-2.118;2023-04-15T10:28:21;4.18;;;0.80;;
29002;SDS011;16102;57.138;-2.118;2023-04-15T10:30:48;2.22;;;0.80;;
29002;SDS011;16102;57.138;-2.118;2023-04-15T10:33:18;2.65;;;0.85;;
29002;SDS011;16102;57.138;-2.118;2023-04-15T10:35:48;5.82;;;1.70;;
29002;SDS011;16102;57.138;-2.118;2023-04-15T10:38:50;2.00;;;0.88;;
29002;SDS011;16102;57.138;-2.118;2023-04-15T10:41:26;2.45;;;1.10;;
29002;SDS011;16102;57.138;-2.118;2023-04-15T10:44:01;5.80;;;1.67;;
29002;SDS011;16102;57.138;-2.118;2023-04-15T10:46:35;2.55;;;0.50;;
29002;SDS011;16102;57.138;-2.118;2023-04-15T10:51:49;5.82;;;1.15;;
29002;SDS011;16102;57.138;-2.118;2023-04-15T10:57:37;3.28;;;0.73;;
29002;SDS011;16102;57.138;-2.118;2023-04-15T11:05:08;4.10;;;1.02;;
29002;SDS011;16102;57.138;-2.118;2023-04-15T11:12:44;4.15;;;1.00;;
29002;SDS011;16102;57.138;-2.118;2023-04-15T11:18:10;5.57;;;1.35;;
29002;SDS011;16102;57.138;-2.118;2023-04-15T11:20:38;4.60;;;1.42;;
29002;SDS011;16102;57.138;-2.118;2023-04-15T11:23:07;4.50;;;1.17;;
29002;SDS011;16102;57.138;-2.118;2023-04-15T11:25:41;6.00;;;1.52;;
29002;SDS011;16102;57.138;-2.118;2023-04-15T11:28:10;5.20;;;0.90;;
29002;SDS011;16102;57.138;-2.118;2023-04-15T11:30:38;5.65;;;1.00;;
29002;SDS011;16102;57.138;-2.118;2023-04-15T11:33:07;6.13;;;0.90;;
29002;SDS011;16102;57.138;-2.118;2023-04-15T11:35:35;5.40;;;0.80;;
29002;SDS011;16102;57.138;-2.118;2023-04-15T11:38:02;3.78;;;0.90;;
29002;SDS011;16102;57.138;-2.118;2023-04-15T11:40:30;4.07;;;1.38;;
29002;SDS011;16102;57.138;-2.118;2023-04-15T11:45:44;4.13;;;1.15;;
29002;SDS011;16102;57.138;-2.118;2023-04-15T11:48:13;3.60;;;1.58;;
29002;SDS011;16102;57.138;-2.118;2023-04-15T11:50:40;4.05;;;1.60;;
29002;SDS011;16102;57.138;-2.118;2023-04-15T11:53:08;3.85;;;1.20;;
29002;SDS011;16102;57.138;-2.118;2023-04-15T11:55:44;4.38;;;0.93;;
29002;SDS011;16102;57.138;-2.118;2023-04-15T12:00:53;6.25;;;1.08;;
29002;SDS011;16102;57.138;-2.118;2023-04-15T12:03:26;1.73;;;0.65;;
29002;SDS011;16102;57.138;-2.118;2023-04-15T12:06:30;3.03;;;0.73;;
29002;SDS011;16102;57.138;-2.118;2023-04-15T12:11:33;3.40;;;0.82;;
29002;SDS011;16102;57.138;-2.118;2023-04-15T12:16:52;6.60;;;1.27;;
29002;SDS011;16102;57.138;-2.118;2023-04-15T12:22:07;2.95;;;0.77;;
29002;SDS011;16102;57.138;-2.118;2023-04-15T12:24:36;2.45;;;0.77;;
29002;SDS011;16102;57.138;-2.118;2023-04-15T12:27:05;2.17;;;0.70;;
29002;SDS011;16102;57.138;-2.118;2023-04-15T12:29:33;2.53;;;1.25;;
29002;SDS011;16102;57.138;-2.118;2023-04-15T12:32:11;9.20;;;1.27;;
29002;SDS011;16102;57.138;-2.118;2023-04-15T12:34:51;0.93;;;0.60;;
29002;SDS011;16102;57.138;-2.118;2023-04-15T12:37:19;1.73;;;0.40;;
29002;SDS011;16102;57.138;-2.118;2023-04-15T12:39:47;2.60;;;0.75;;
29002;SDS011;16102;57.138;-2.118;2023-04-15T12:42:15;1.95;;;0.55;;
29002;SDS011;16102;57.138;-2.118;2023-04-15T12:44:43;4.75;;;0.85;;
29002;SDS011;16102;57.138;-2.118;2023-04-15T12:47:10;1.33;;;0.82;;
29002;SDS011;16102;57.138;-2.118;2023-04-15T12:49:38;2.95;;;0.70;;
29002;SDS011;16102;57.138;-2.118;2023-04-15T12:52:06;3.42;;;0.85;;
29002;SDS011;16102;57.138;-2.118;2023-04-15T12:54:33;3.03;;;0.60;;
29002;SDS011;16102;57.138;-2.118;2023-04-15T12:57:01;1.10;;;0.40;;
29002;SDS011;16102;57.138;-2.118;2023-04-15T12:59:32;1.00;;;0.47;;
29002;SDS011;16102;57.138;-2.118;2023-04-15T13:02:00;2.00;;;0.55;;
29002;SDS011;16102;57.138;-2.118;2023-04-15T13:04:28;1.58;;;0.60;;
29002;SDS011;16102;57.138;-2.118;2023-04-15T13:06:58;1.35;;;0.60;;
29002;SDS011;16102;57.138;-2.118;2023-04-15T13:09:25;2.20;;;0.77;;
29002;SDS011;16102;57.138;-2.118;2023-04-15T13:11:52;3.30;;;0.95;;
29002;SDS011;16102;57.138;-2.118;2023-04-15T13:14:19;4.10;;;0.75;;
29002;SDS011;16102;57.138;-2.118;2023-04-15T13:16:46;3.22;;;0.50;;
29002;SDS011;16102;57.138;-2.118;2023-04-15T13:19:13;2.90;;;0.50;;
29002;SDS011;16102;57.138;-2.118;2023-04-15T13:21:41;1.63;;;0.43;;
29002;SDS011;16102;57.138;-2.118;2023-04-15T13:24:08;1.10;;;0.60;;
29002;SDS011;16102;57.138;-2.118;2023-04-15T13:26:35;2.78;;;0.70;;
29002;SDS011;16102;57.138;-2.118;2023-04-15T13:29:03;1.00;;;0.50;;
29002;SDS011;16102;57.138;-2.118;2023-04-15T13:31:30;4.35;;;0.80;;
29002;SDS011;16102;57.138;-2.118;2023-04-15T13:33:58;2.88;;;0.60;;
29002;SDS011;16102;57.138;-2.118;2023-04-15T13:36:24;2.92;;;0.80;;
29002;SDS011;16102;57.138;-2.118;2023-04-15T13:38:52;3.03;;;0.68;;
29002;SDS011;16102;57.138;-2.118;2023-04-15T13:41:19;1.00;;;0.57;;
29002;SDS011;16102;57.138;-2.118;2023-04-15T13:43:47;1.83;;;0.47;;
29002;SDS011;16102;57.138;-2.118;2023-04-15T13:46:14;1.67;;;0.55;;
29002;SDS011;16102;57.138;-2.118;2023-04-15T13:48:41;2.05;;;0.57;;
29002;SDS011;16102;57.138;-2.118;2023-04-15T13:51:08;0.80;;;0.30;;
29002;SDS011;16102;57.138;-2.118;2023-04-15T13:53:35;1.45;;;0.28;;
29002;SDS011;16102;57.138;-2.118;2023-04-15T13:56:07;2.78;;;0.55;;
29002;SDS011;16102;57.138;-2.118;2023-04-15T13:58:35;2.15;;;0.65;;
29002;SDS011;16102;57.138;-2.118;2023-04-15T14:01:03;2.17;;;0.52;;
29002;SDS011;16102;57.138;-2.118;2023-04-15T14:03:33;3.17;;;0.60;;
29002;SDS011;16102;57.138;-2.118;2023-04-15T14:06:01;2.22;;;0.60;;
29002;SDS011;16102;57.138;-2.118;2023-04-15T14:08:28;1.75;;;0.60;;
29002;SDS011;16102;57.138;-2.118;2023-04-15T14:10:56;3.33;;;0.68;;
29002;SDS011;16102;57.138;-2.118;2023-04-15T14:13:23;2.05;;;0.65;;
29002;SDS011;16102;57.138;-2.118;2023-04-15T14:15:50;3.83;;;0.80;;
29002;SDS011;16102;57.138;-2.118;2023-04-15T14:18:17;2.28;;;0.77;;
29002;SDS011;16102;57.138;-2.118;2023-04-15T14:20:44;1.38;;;0.40;;
29002;SDS011;16102;57.138;-2.118;2023-04-15T14:23:11;5.40;;;0.82;;
29002;SDS011;16102;57.138;-2.118;2023-04-15T14:25:38;3.72;;;0.73;;
29002;SDS011;16102;57.138;-2.118;2023-04-15T14:28:05;1.80;;;0.47;;
29002;SDS011;16102;57.138;-2.118;2023-04-15T14:30:34;1.33;;;0.60;;
29002;SDS011;16102;57.138;-2.118;2023-04-15T14:33:01;2.92;;;1.02;;
29002;SDS011;16102;57.138;-2.118;2023-04-15T14:35:29;4.75;;;0.95;;
29002;SDS011;16102;57.138;-2.118;2023-04-15T14:37:56;5.07;;;0.75;;
29002;SDS011;16102;57.138;-2.118;2023-04-15T14:40:23;4.25;;;1.13;;
29002;SDS011;16102;57.138;-2.118;2023-04-15T14:42:50;4.43;;;1.77;;
29002;SDS011;16102;57.138;-2.118;2023-04-15T14:45:17;2.78;;;1.30;;
29002;SDS011;16102;57.138;-2.118;2023-04-15T14:47:45;2.72;;;1.02;;
29002;SDS011;16102;57.138;-2.118;2023-04-15T14:50:12;2.85;;;0.98;;
29002;SDS011;16102;57.138;-2.118;2023-04-15T14:52:39;2.63;;;0.90;;
29002;SDS011;16102;57.138;-2.118;2023-04-15T14:55:09;5.20;;;0.70;;
29002;SDS011;16102;57.138;-2.118;2023-04-15T14:57:38;4.60;;;1.10;;
29002;SDS011;16102;57.138;-2.118;2023-04-15T15:00:06;3.97;;;0.88;;
29002;SDS011;16102;57.138;-2.118;2023-04-15T15:02:36;2.80;;;0.95;;
29002;SDS011;16102;57.138;-2.118;2023-04-15T15:05:06;2.15;;;0.80;;
29002;SDS011;16102;57.138;-2.118;2023-04-15T15:07:34;2.47;;;0.98;;
29002;SDS011;16102;57.138;-2.118;2023-04-15T15:10:05;1.20;;;0.50;;
29002;SDS011;16102;57.138;-2.118;2023-04-15T15:12:32;2.00;;;0.80;;
29002;SDS011;16102;57.138;-2.118;2023-04-15T15:14:59;1.60;;;0.63;;
29002;SDS011;16102;57.138;-2.118;2023-04-15T15:17:34;2.00;;;0.65;;